Time;durP1;ratioP1;P1;durP2;ratioP2;P2;SDS_P1;SDS_P2;PMS_P1;PMS_P2;Temp;Humidity;BMP_temperature;BMP_pressure;BME280_temperature;BME280_humidity;BME280_pressure;Samples;Min_cycle;Max_cycle;Signal;HPM_P1;HPM_P2
2022/01/11 00:00:46;;;;;;;19.60;15.47;;;;;;;;;;6189284;23;20174;-81
2022/01/11 00:03:16;;;;;;;19.00;14.27;;;;;;;;;;6189082;23;20194;-82
2022/01/11 00:05:53;;;;;;;22.13;15.20;;;;;;;;;;6189890;23;20196;-81
2022/01/11 00:08:29;;;;;;;23.50;15.90;;;;;;;;;;6189261;23;20173;-83
2022/01/11 00:11:03;;;;;;;23.43;15.90;;;;;;;;;;6187978;23;20229;-81
2022/01/11 00:13:31;;;;;;;22.80;15.70;;;;;;;;;;6189430;23;20208;-81
2022/01/11 00:16:01;;;;;;;23.27;17.17;;;;;;;;;;6188746;23;20166;-81
2022/01/11 00:18:29;;;;;;;19.70;16.60;;;;;;;;;;6189934;23;20178;-81
2022/01/11 00:20:58;;;;;;;23.87;15.90;;;;;;;;;;6187713;23;20197;-82
2022/01/11 00:26:14;;;;;;;24.57;16.90;;;;;;;;;;6189273;23;20236;-81
2022/01/11 00:28:41;;;;;;;23.97;16.30;;;;;;;;;;6188833;23;20265;-82
2022/01/11 00:31:12;;;;;;;25.23;17.27;;;;;;;;;;6188883;23;20177;-82
2022/01/11 00:33:43;;;;;;;21.83;17.07;;;;;;;;;;6189366;23;20216;-81
2022/01/11 00:36:12;;;;;;;19.73;15.53;;;;;;;;;;6189690;23;20162;-82
2022/01/11 00:38:40;;;;;;;20.57;15.33;;;;;;;;;;6190457;23;20182;-81
2022/01/11 00:41:08;;;;;;;21.10;16.13;;;;;;;;;;6206262;23;20173;-83
2022/01/11 00:43:37;;;;;;;23.20;16.20;;;;;;;;;;6184183;23;20268;-81
2022/01/11 00:46:04;;;;;;;21.40;16.63;;;;;;;;;;6184180;23;20201;-81
2022/01/11 00:48:32;;;;;;;23.20;17.20;;;;;;;;;;6184645;23;20191;-81
2022/01/11 00:51:00;;;;;;;20.83;16.50;;;;;;;;;;6184798;23;20178;-81
2022/01/11 00:53:29;;;;;;;23.10;16.80;;;;;;;;;;6185228;23;20194;-79
2022/01/11 00:55:56;;;;;;;24.17;17.33;;;;;;;;;;6185757;23;20174;-81
2022/01/11 00:58:23;;;;;;;23.93;16.90;;;;;;;;;;6187135;23;20200;-81
2022/01/11 01:00:51;;;;;;;23.07;16.87;;;;;;;;;;6185687;23;20197;-82
2022/01/11 01:03:19;;;;;;;23.47;16.50;;;;;;;;;;6187708;23;20194;-81
2022/01/11 01:05:47;;;;;;;26.60;18.33;;;;;;;;;;6197431;23;20269;-81
2022/01/11 01:08:14;;;;;;;23.13;16.73;;;;;;;;;;6195748;23;20232;-81
2022/01/11 01:10:47;;;;;;;23.03;16.50;;;;;;;;;;6195455;23;20173;-80
2022/01/11 01:13:17;;;;;;;21.03;16.50;;;;;;;;;;6197974;23;20189;-82
2022/01/11 01:15:46;;;;;;;20.83;15.70;;;;;;;;;;6193520;23;20225;-81
2022/01/11 01:18:15;;;;;;;23.37;16.17;;;;;;;;;;6190859;23;20178;-82
2022/01/11 01:20:42;;;;;;;20.63;16.20;;;;;;;;;;6189972;23;20177;-81
2022/01/11 01:23:10;;;;;;;22.57;16.17;;;;;;;;;;6194694;23;20213;-82
2022/01/11 01:25:37;;;;;;;22.07;16.20;;;;;;;;;;6202292;23;20196;-80
2022/01/11 01:28:07;;;;;;;22.27;15.83;;;;;;;;;;6195351;23;20250;-82
2022/01/11 01:30:34;;;;;;;20.07;15.57;;;;;;;;;;6189974;23;20189;-80
2022/01/11 01:33:01;;;;;;;24.03;15.77;;;;;;;;;;6189730;23;20197;-82
2022/01/11 01:35:34;;;;;;;20.40;15.73;;;;;;;;;;6189872;23;20248;-82
2022/01/11 01:38:01;;;;;;;22.33;15.80;;;;;;;;;;6190019;23;20162;-82
2022/01/11 01:40:35;;;;;;;24.07;16.00;;;;;;;;;;6190102;23;20246;-81
2022/01/11 01:43:03;;;;;;;22.47;15.70;;;;;;;;;;6190341;23;20201;-82
2022/01/11 01:45:32;;;;;;;22.90;14.83;;;;;;;;;;6189303;23;20271;-81
2022/01/11 01:47:59;;;;;;;20.80;15.03;;;;;;;;;;6189004;23;20178;-82
2022/01/11 01:50:29;;;;;;;20.07;15.97;;;;;;;;;;6188319;23;20181;-79
2022/01/11 01:52:58;;;;;;;21.73;16.07;;;;;;;;;;6188374;23;20198;-81
2022/01/11 01:55:25;;;;;;;21.60;16.50;;;;;;;;;;6188620;23;20255;-81
2022/01/11 01:57:53;;;;;;;24.77;17.80;;;;;;;;;;6189140;23;20193;-81
2022/01/11 02:00:22;;;;;;;21.13;15.40;;;;;;;;;;6187875;23;20182;-80
2022/01/11 02:02:51;;;;;;;23.63;16.60;;;;;;;;;;6186463;23;20256;-80
2022/01/11 02:05:18;;;;;;;23.73;16.27;;;;;;;;;;6187416;23;20205;-81
2022/01/11 02:07:47;;;;;;;22.53;16.53;;;;;;;;;;6188478;23;20174;-81
2022/01/11 02:10:15;;;;;;;20.77;15.80;;;;;;;;;;6187674;23;20170;-81
2022/01/11 02:12:43;;;;;;;21.10;16.60;;;;;;;;;;6186818;23;20194;-81
2022/01/11 02:15:11;;;;;;;20.60;15.77;;;;;;;;;;6184679;23;20170;-79
2022/01/11 02:17:38;;;;;;;21.03;15.87;;;;;;;;;;6186353;23;20174;-82
2022/01/11 02:20:08;;;;;;;18.97;15.63;;;;;;;;;;6187243;23;20170;-81
2022/01/11 02:22:36;;;;;;;21.03;16.10;;;;;;;;;;6185406;23;20194;-81
2022/01/11 02:25:04;;;;;;;21.70;16.03;;;;;;;;;;6190088;23;20186;-79
2022/01/11 02:27:31;;;;;;;20.33;15.97;;;;;;;;;;6189708;23;20520;-80
2022/01/11 02:29:58;;;;;;;22.07;16.43;;;;;;;;;;6189640;23;20174;-81
2022/01/11 02:32:25;;;;;;;19.67;15.80;;;;;;;;;;6188431;23;20197;-80
2022/01/11 02:34:53;;;;;;;23.63;17.00;;;;;;;;;;6189793;23;20174;-81
2022/01/11 02:37:20;;;;;;;21.97;16.20;;;;;;;;;;6190400;23;20186;-81
2022/01/11 02:39:49;;;;;;;22.50;14.87;;;;;;;;;;6191146;23;20184;-81
2022/01/11 02:42:16;;;;;;;19.93;15.80;;;;;;;;;;6189895;23;20224;-81
2022/01/11 02:44:49;;;;;;;23.07;16.90;;;;;;;;;;6191264;23;20178;-81
2022/01/11 02:47:16;;;;;;;20.50;16.07;;;;;;;;;;6191228;23;20154;-82
2022/01/11 02:49:44;;;;;;;23.20;16.97;;;;;;;;;;6190658;23;20181;-79
2022/01/11 02:52:11;;;;;;;24.83;17.40;;;;;;;;;;6190037;23;20198;-81
2022/01/11 02:54:38;;;;;;;25.47;18.13;;;;;;;;;;6190891;23;20201;-82
2022/01/11 02:57:07;;;;;;;25.97;17.90;;;;;;;;;;6191370;23;20221;-81
2022/01/11 02:59:35;;;;;;;23.73;17.10;;;;;;;;;;6191549;23;20172;-81
2022/01/11 03:02:02;;;;;;;22.83;16.93;;;;;;;;;;6189595;23;20193;-81
2022/01/11 03:04:33;;;;;;;23.67;16.63;;;;;;;;;;6190871;23;20669;-81
2022/01/11 03:07:00;;;;;;;25.03;16.47;;;;;;;;;;6190785;23;20185;-82
2022/01/11 03:09:32;;;;;;;22.73;16.83;;;;;;;;;;6190915;23;20170;-81
2022/01/11 03:11:59;;;;;;;24.57;17.50;;;;;;;;;;6189304;23;20213;-81
2022/01/11 03:14:28;;;;;;;23.20;16.23;;;;;;;;;;6189624;23;20170;-81
2022/01/11 03:16:56;;;;;;;20.90;15.87;;;;;;;;;;6189212;23;20277;-81
2022/01/11 03:19:23;;;;;;;24.53;16.07;;;;;;;;;;6187875;23;20170;-81
2022/01/11 03:21:50;;;;;;;21.17;16.67;;;;;;;;;;6186258;23;20193;-80
2022/01/11 03:24:17;;;;;;;20.50;15.70;;;;;;;;;;6188499;23;20185;-81
2022/01/11 03:26:45;;;;;;;25.87;18.03;;;;;;;;;;6189542;23;20197;-81
2022/01/11 03:29:12;;;;;;;22.63;16.23;;;;;;;;;;6189228;23;20170;-81
2022/01/11 03:31:40;;;;;;;22.73;16.23;;;;;;;;;;6187495;23;20178;-80
2022/01/11 03:34:08;;;;;;;24.50;17.40;;;;;;;;;;6189217;23;20241;-82
2022/01/11 03:36:35;;;;;;;23.27;16.40;;;;;;;;;;6188885;23;20236;-82
2022/01/11 03:39:02;;;;;;;20.57;15.93;;;;;;;;;;6188587;23;20181;-80
2022/01/11 03:41:30;;;;;;;22.13;16.40;;;;;;;;;;6188732;23;20225;-81
2022/01/11 03:43:57;;;;;;;20.63;15.93;;;;;;;;;;6162573;23;20584;-89
2022/01/11 03:46:26;;;;;;;21.87;16.03;;;;;;;;;;6155836;23;20190;-87
2022/01/11 03:48:58;;;;;;;24.07;15.80;;;;;;;;;;6155470;23;20171;-89
2022/01/11 03:51:26;;;;;;;23.27;17.17;;;;;;;;;;6164665;23;20193;-87
2022/01/11 03:54:00;;;;;;;21.93;16.47;;;;;;;;;;6157469;23;20261;-90
2022/01/11 03:56:28;;;;;;;21.67;15.63;;;;;;;;;;6156649;23;20189;-89
2022/01/11 03:58:57;;;;;;;21.33;15.80;;;;;;;;;;6156175;23;20177;-87
2022/01/11 04:01:25;;;;;;;21.23;15.80;;;;;;;;;;6156038;23;20174;-88
2022/01/11 04:03:52;;;;;;;21.23;15.07;;;;;;;;;;6155943;23;20195;-88
2022/01/11 04:06:21;;;;;;;21.30;15.80;;;;;;;;;;6155207;23;20187;-87
2022/01/11 04:08:55;;;;;;;23.87;17.00;;;;;;;;;;6155467;23;20175;-87
2022/01/11 04:11:35;;;;;;;21.30;16.60;;;;;;;;;;6155488;23;20201;-88
2022/01/11 04:14:10;;;;;;;23.80;16.77;;;;;;;;;;6155103;23;20201;-87
2022/01/11 04:16:39;;;;;;;24.77;16.43;;;;;;;;;;6156520;23;20158;-87
2022/01/11 04:22:06;;;;;;;21.17;15.57;;;;;;;;;;6044802;23;20504;-87
2022/01/11 04:24:51;;;;;;;22.47;16.67;;;;;;;;;;6173773;23;20226;-87
2022/01/11 04:27:35;;;;;;;20.57;15.57;;;;;;;;;;6166650;23;20209;-88
2022/01/11 04:30:06;;;;;;;20.33;15.63;;;;;;;;;;6176547;23;20162;-89
2022/01/11 04:35:41;;;;;;;22.03;16.33;;;;;;;;;;6168898;23;20192;-88
2022/01/11 04:38:08;;;;;;;22.87;16.30;;;;;;;;;;6154780;23;20202;-82
2022/01/11 04:40:36;;;;;;;23.03;16.17;;;;;;;;;;6160171;23;20182;-82
2022/01/11 04:43:04;;;;;;;21.00;15.50;;;;;;;;;;6160080;23;20705;-82
2022/01/11 04:50:46;;;;;;;20.53;15.60;;;;;;;;;;6213859;23;20173;-88
2022/01/11 04:53:14;;;;;;;20.87;15.90;;;;;;;;;;6214078;23;20177;-88
2022/01/11 04:55:52;;;;;;;20.63;15.77;;;;;;;;;;6216031;23;20169;-88
2022/01/11 04:58:22;;;;;;;22.83;15.43;;;;;;;;;;6216292;23;20694;-88
2022/01/11 05:00:55;;;;;;;20.70;16.10;;;;;;;;;;6220445;23;20181;-87
2022/01/11 05:03:22;;;;;;;25.10;16.47;;;;;;;;;;6232083;23;20223;-88
2022/01/11 05:05:53;;;;;;;22.07;16.47;;;;;;;;;;6214148;23;20189;-87
2022/01/11 05:08:26;;;;;;;23.10;16.10;;;;;;;;;;6214380;23;20189;-87
2022/01/11 05:10:54;;;;;;;23.60;16.70;;;;;;;;;;6215527;23;20161;-88
2022/01/11 05:13:25;;;;;;;25.43;17.00;;;;;;;;;;6215101;23;20179;-88
2022/01/11 05:16:10;;;;;;;24.27;17.37;;;;;;;;;;6215706;23;20165;-88
2022/01/11 05:18:40;;;;;;;20.73;15.97;;;;;;;;;;6214360;23;20272;-88
2022/01/11 05:21:07;;;;;;;21.60;16.53;;;;;;;;;;6214982;23;20232;-88
2022/01/11 05:23:39;;;;;;;22.13;16.50;;;;;;;;;;6215634;23;20256;-88
2022/01/11 05:26:15;;;;;;;23.70;16.67;;;;;;;;;;6215181;23;20185;-88
2022/01/11 05:28:45;;;;;;;24.10;17.80;;;;;;;;;;6214525;23;20200;-88
2022/01/11 05:31:32;;;;;;;27.57;18.60;;;;;;;;;;6216095;23;20181;-87
2022/01/11 05:34:01;;;;;;;25.33;17.60;;;;;;;;;;6215975;23;20232;-87
2022/01/11 05:36:43;;;;;;;23.00;16.80;;;;;;;;;;6215357;23;20165;-87
2022/01/11 05:39:11;;;;;;;22.03;17.17;;;;;;;;;;6212772;23;20248;-88
2022/01/11 05:41:43;;;;;;;23.80;17.30;;;;;;;;;;6215471;23;20173;-88
2022/01/11 05:44:23;;;;;;;25.00;18.50;;;;;;;;;;6216153;23;20244;-88
2022/01/11 05:46:56;;;;;;;29.07;18.93;;;;;;;;;;6215405;23;20195;-87
2022/01/11 05:49:23;;;;;;;29.13;18.67;;;;;;;;;;6218266;23;20203;-87
2022/01/11 05:51:54;;;;;;;28.70;19.00;;;;;;;;;;6222050;23;20233;-88
2022/01/11 05:54:21;;;;;;;27.50;19.53;;;;;;;;;;6217826;23;20648;-88
2022/01/11 05:59:56;;;;;;;27.20;18.40;;;;;;;;;;6216359;23;20297;-87
2022/01/11 06:02:41;;;;;;;25.67;19.43;;;;;;;;;;6223155;23;20173;-88
2022/01/11 06:05:17;;;;;;;30.23;19.27;;;;;;;;;;6220622;23;20168;-87
2022/01/11 06:07:49;;;;;;;24.87;18.97;;;;;;;;;;6215786;23;20196;-88
2022/01/11 06:10:28;;;;;;;27.07;19.00;;;;;;;;;;6219278;23;20220;-87
2022/01/11 06:15:57;;;;;;;27.33;18.93;;;;;;;;;;6216592;23;20173;-88
2022/01/11 06:18:36;;;;;;;25.60;18.17;;;;;;;;;;6217915;23;20196;-87
2022/01/11 06:21:05;;;;;;;26.30;17.83;;;;;;;;;;6218801;23;20168;-88
2022/01/11 06:23:35;;;;;;;27.87;18.47;;;;;;;;;;6219447;23;20173;-87
2022/01/11 06:35:36;;;;;;;25.63;17.63;;;;;;;;;;6141810;23;20189;-88
2022/01/11 06:38:08;;;;;;;30.53;18.30;;;;;;;;;;6142653;23;20196;-88
2022/01/11 06:40:40;;;;;;;31.07;19.60;;;;;;;;;;6146020;23;20190;-88
2022/01/11 06:43:25;;;;;;;29.30;19.23;;;;;;;;;;6145181;23;20172;-88
2022/01/11 06:46:05;;;;;;;29.83;21.40;;;;;;;;;;6141875;23;20175;-87
2022/01/11 06:48:41;;;;;;;31.07;19.67;;;;;;;;;;6182673;23;20205;-88
2022/01/11 06:51:11;;;;;;;28.33;19.07;;;;;;;;;;6202764;23;20154;-88
2022/01/11 06:53:39;;;;;;;28.43;19.63;;;;;;;;;;6211427;23;20246;-88
2022/01/11 06:56:24;;;;;;;26.60;19.23;;;;;;;;;;6210126;23;20193;-88
2022/01/11 06:59:09;;;;;;;31.17;20.77;;;;;;;;;;6209262;23;20178;-88
2022/01/11 07:01:36;;;;;;;27.00;19.83;;;;;;;;;;6208552;23;20247;-87
2022/01/11 07:04:08;;;;;;;29.80;20.80;;;;;;;;;;6206053;23;20161;-87
2022/01/11 07:06:37;;;;;;;33.50;22.90;;;;;;;;;;6188427;23;20251;-88
2022/01/11 07:09:06;;;;;;;35.10;23.03;;;;;;;;;;6186951;23;20194;-88
2022/01/11 07:11:36;;;;;;;38.53;23.30;;;;;;;;;;6186323;23;20174;-88
2022/01/11 07:14:18;;;;;;;32.87;22.27;;;;;;;;;;6186991;23;20180;-88
2022/01/11 07:16:48;;;;;;;40.77;24.93;;;;;;;;;;6185169;23;20228;-88
2022/01/11 07:19:35;;;;;;;35.43;24.13;;;;;;;;;;6185711;23;20610;-90
2022/01/11 07:22:17;;;;;;;33.90;21.93;;;;;;;;;;6187611;23;20189;-90
2022/01/11 07:24:44;;;;;;;31.60;22.23;;;;;;;;;;6185751;23;20166;-88
2022/01/11 07:27:12;;;;;;;32.70;21.60;;;;;;;;;;6186070;23;20221;-86
2022/01/11 07:29:39;;;;;;;30.27;22.20;;;;;;;;;;6187347;23;20190;-87
2022/01/11 07:32:07;;;;;;;31.80;22.30;;;;;;;;;;6187232;23;20178;-86
2022/01/11 07:34:35;;;;;;;30.80;23.00;;;;;;;;;;6188446;23;20193;-86
2022/01/11 07:37:02;;;;;;;31.13;20.87;;;;;;;;;;6193466;23;20190;-86
2022/01/11 07:39:31;;;;;;;33.83;20.87;;;;;;;;;;6187988;23;20193;-91
2022/01/11 07:41:58;;;;;;;31.70;20.73;;;;;;;;;;6188197;23;20260;-85
2022/01/11 07:44:26;;;;;;;28.03;20.07;;;;;;;;;;6186666;23;20184;-85
2022/01/11 07:46:53;;;;;;;30.57;21.23;;;;;;;;;;6186993;23;20190;-87
2022/01/11 07:49:21;;;;;;;28.60;20.43;;;;;;;;;;6186856;23;20192;-87
2022/01/11 07:51:49;;;;;;;26.87;20.53;;;;;;;;;;6186297;23;20170;-88
2022/01/11 07:54:16;;;;;;;27.37;19.27;;;;;;;;;;6187558;23;20174;-86
2022/01/11 07:56:46;;;;;;;25.00;19.07;;;;;;;;;;6189700;23;20201;-85
2022/01/11 07:59:14;;;;;;;26.67;19.27;;;;;;;;;;6190230;23;20173;-86
2022/01/11 08:01:41;;;;;;;24.43;18.57;;;;;;;;;;6193474;23;20174;-85
2022/01/11 08:04:11;;;;;;;27.30;19.40;;;;;;;;;;6193315;23;20177;-86
2022/01/11 08:06:41;;;;;;;26.13;19.30;;;;;;;;;;6193815;23;20194;-87
2022/01/11 08:09:14;;;;;;;24.37;18.23;;;;;;;;;;6195287;23;20174;-85
2022/01/11 08:11:41;;;;;;;27.10;20.17;;;;;;;;;;6196473;23;20154;-84
2022/01/11 08:14:10;;;;;;;24.77;18.37;;;;;;;;;;6195605;23;20178;-85
2022/01/11 08:16:39;;;;;;;26.07;19.20;;;;;;;;;;6194537;23;20178;-84
2022/01/11 08:19:06;;;;;;;28.20;19.57;;;;;;;;;;6195772;23;20177;-84
2022/01/11 08:21:33;;;;;;;25.60;19.50;;;;;;;;;;6197364;23;20174;-84
2022/01/11 08:24:01;;;;;;;25.57;18.80;;;;;;;;;;6196882;23;20174;-84
2022/01/11 08:26:28;;;;;;;27.47;18.90;;;;;;;;;;6195344;23;20178;-84
2022/01/11 08:28:55;;;;;;;28.90;20.10;;;;;;;;;;6194935;23;20194;-85
2022/01/11 08:31:24;;;;;;;25.90;19.20;;;;;;;;;;6192231;23;20170;-89
2022/01/11 08:33:52;;;;;;;28.40;20.07;;;;;;;;;;6188453;23;20177;-83
2022/01/11 08:36:19;;;;;;;27.83;20.47;;;;;;;;;;6189966;23;20221;-85
2022/01/11 08:38:46;;;;;;;31.83;23.07;;;;;;;;;;6187371;23;20224;-84
2022/01/11 08:41:14;;;;;;;30.60;22.37;;;;;;;;;;6187961;23;20174;-85
2022/01/11 08:43:42;;;;;;;26.20;19.97;;;;;;;;;;6188048;23;20197;-85
2022/01/11 08:46:09;;;;;;;25.17;19.53;;;;;;;;;;6189551;23;20190;-88
2022/01/11 08:48:39;;;;;;;26.93;19.03;;;;;;;;;;6187319;23;20194;-87
2022/01/11 08:51:07;;;;;;;27.97;20.13;;;;;;;;;;6189160;23;20184;-87
2022/01/11 08:53:34;;;;;;;28.23;19.80;;;;;;;;;;6188045;23;20181;-87
2022/01/11 08:56:05;;;;;;;25.93;19.77;;;;;;;;;;6188501;23;20188;-88
2022/01/11 08:58:52;;;;;;;26.60;19.37;;;;;;;;;;6188019;23;20189;-89
2022/01/11 09:01:20;;;;;;;29.27;20.43;;;;;;;;;;6188165;23;20162;-82
2022/01/11 09:03:49;;;;;;;27.27;19.27;;;;;;;;;;6186541;23;20231;-90
2022/01/11 09:06:19;;;;;;;24.80;19.20;;;;;;;;;;6185922;23;20224;-88
2022/01/11 09:08:47;;;;;;;25.93;20.70;;;;;;;;;;6185241;23;20201;-88
2022/01/11 09:11:16;;;;;;;24.87;19.03;;;;;;;;;;6185639;23;20185;-88
2022/01/11 09:13:48;;;;;;;24.60;19.00;;;;;;;;;;6185529;23;20207;-88
2022/01/11 09:16:17;;;;;;;26.33;20.03;;;;;;;;;;6187238;23;20228;-90
2022/01/11 09:18:46;;;;;;;29.00;20.47;;;;;;;;;;6187608;23;20270;-91
2022/01/11 09:21:20;;;;;;;26.60;18.90;;;;;;;;;;6187541;23;20177;-90
2022/01/11 09:23:48;;;;;;;26.17;17.90;;;;;;;;;;6187080;23;20189;-90
2022/01/11 09:26:15;;;;;;;23.80;18.70;;;;;;;;;;6191009;23;20173;-88
2022/01/11 09:28:43;;;;;;;25.07;18.80;;;;;;;;;;6192959;23;20190;-89
2022/01/11 09:31:10;;;;;;;25.50;18.17;;;;;;;;;;6193714;23;20174;-89
2022/01/11 09:33:38;;;;;;;24.20;18.50;;;;;;;;;;6191506;23;20222;-87
2022/01/11 09:36:06;;;;;;;22.83;18.00;;;;;;;;;;6193538;23;20174;-89
2022/01/11 09:38:35;;;;;;;22.13;17.40;;;;;;;;;;6191200;23;20190;-88
2022/01/11 09:41:02;;;;;;;24.70;17.87;;;;;;;;;;6190247;23;20181;-88
2022/01/11 09:43:30;;;;;;;22.30;17.60;;;;;;;;;;6189681;23;20181;-88
2022/01/11 09:45:59;;;;;;;21.33;17.37;;;;;;;;;;6189832;23;20176;-87
2022/01/11 09:48:27;;;;;;;23.33;17.67;;;;;;;;;;6189039;23;20194;-88
2022/01/11 09:50:54;;;;;;;22.27;17.20;;;;;;;;;;6192631;23;20174;-88
2022/01/11 09:53:22;;;;;;;22.43;16.43;;;;;;;;;;6193931;23;20229;-88
2022/01/11 09:55:51;;;;;;;20.03;16.33;;;;;;;;;;6194022;23;20178;-88
2022/01/11 09:58:19;;;;;;;18.10;14.63;;;;;;;;;;6193195;23;20190;-88
2022/01/11 10:00:50;;;;;;;20.87;16.30;;;;;;;;;;6193174;23;20180;-88
2022/01/11 10:03:17;;;;;;;19.23;15.20;;;;;;;;;;6186483;23;20174;-88
2022/01/11 10:05:45;;;;;;;19.60;15.50;;;;;;;;;;6185809;23;20196;-88
2022/01/11 10:08:23;;;;;;;25.80;16.57;;;;;;;;;;6182866;23;20264;-89
2022/01/11 10:10:53;;;;;;;20.07;16.67;;;;;;;;;;6184275;23;20232;-86
2022/01/11 10:13:31;;;;;;;21.83;16.50;;;;;;;;;;6184738;23;20176;-87
2022/01/11 10:15:59;;;;;;;23.30;15.53;;;;;;;;;;6184593;23;20220;-85
2022/01/11 10:18:36;;;;;;;23.23;16.60;;;;;;;;;;6184786;23;20240;-87
2022/01/11 10:21:06;;;;;;;22.17;15.80;;;;;;;;;;6185100;23;20185;-87
2022/01/11 10:23:34;;;;;;;19.93;14.93;;;;;;;;;;6186586;23;20170;-89
2022/01/11 10:26:06;;;;;;;19.70;14.57;;;;;;;;;;6186301;23;20174;-87
2022/01/11 10:28:35;;;;;;;23.67;15.50;;;;;;;;;;6183696;23;20194;-89
2022/01/11 10:31:02;;;;;;;18.90;14.20;;;;;;;;;;6184770;23;20245;-89
2022/01/11 10:33:30;;;;;;;19.87;15.03;;;;;;;;;;6186038;23;20205;-89
2022/01/11 10:35:57;;;;;;;18.67;13.63;;;;;;;;;;6190770;23;20174;-88
2022/01/11 10:38:26;;;;;;;16.87;12.67;;;;;;;;;;6190887;23;20194;-87
2022/01/11 10:40:54;;;;;;;17.47;12.77;;;;;;;;;;6188280;23;20174;-87
2022/01/11 10:43:24;;;;;;;17.27;14.27;;;;;;;;;;6186394;23;20170;-87
2022/01/11 10:45:52;;;;;;;16.93;13.20;;;;;;;;;;6187935;23;20174;-89
2022/01/11 10:48:21;;;;;;;19.53;14.17;;;;;;;;;;6186370;23;20256;-86
2022/01/11 10:50:49;;;;;;;14.20;12.70;;;;;;;;;;6186732;23;20174;-86
2022/01/11 10:53:18;;;;;;;17.67;13.07;;;;;;;;;;6186804;23;20169;-88
2022/01/11 10:55:49;;;;;;;18.60;14.37;;;;;;;;;;6186732;23;20174;-87
2022/01/11 10:58:16;;;;;;;16.67;12.43;;;;;;;;;;6187274;23;20208;-88
2022/01/11 11:00:46;;;;;;;15.03;11.30;;;;;;;;;;6187579;23;20185;-89
2022/01/11 11:03:17;;;;;;;16.17;12.60;;;;;;;;;;6166853;23;20665;-83
2022/01/11 11:05:48;;;;;;;16.00;12.53;;;;;;;;;;6165913;23;20167;-82
2022/01/11 11:08:16;;;;;;;17.67;12.97;;;;;;;;;;6164311;23;20187;-84
2022/01/11 11:10:49;;;;;;;14.07;12.53;;;;;;;;;;6165312;23;20226;-86
2022/01/11 11:13:22;;;;;;;17.73;13.40;;;;;;;;;;6165396;23;20198;-84
2022/01/11 11:15:51;;;;;;;17.53;12.53;;;;;;;;;;6163109;23;20174;-84
2022/01/11 11:18:37;;;;;;;13.83;11.47;;;;;;;;;;6162925;23;20235;-83
2022/01/11 11:21:16;;;;;;;15.40;11.23;;;;;;;;;;6166139;23;20175;-83
2022/01/11 11:23:44;;;;;;;13.10;10.93;;;;;;;;;;6163909;23;20174;-83
2022/01/11 11:26:14;;;;;;;12.80;11.03;;;;;;;;;;6164279;23;20528;-80
2022/01/11 11:28:42;;;;;;;14.07;10.87;;;;;;;;;;6164785;23;20179;-82
2022/01/11 11:31:16;;;;;;;15.83;10.83;;;;;;;;;;6163568;23;20175;-84
2022/01/11 11:33:47;;;;;;;14.87;10.53;;;;;;;;;;6163743;23;20167;-83
2022/01/11 11:36:16;;;;;;;12.87;10.13;;;;;;;;;;6165206;23;20166;-83
2022/01/11 11:38:46;;;;;;;11.17;9.47;;;;;;;;;;6164292;23;20166;-84
2022/01/11 11:41:14;;;;;;;9.77;8.53;;;;;;;;;;6167813;23;20174;-83
2022/01/11 11:43:42;;;;;;;6.30;5.70;;;;;;;;;;6157243;23;20171;-87
2022/01/11 11:46:09;;;;;;;12.03;9.60;;;;;;;;;;6158230;23;20178;-82
2022/01/11 11:48:38;;;;;;;9.20;6.47;;;;;;;;;;6157894;23;20199;-80
2022/01/11 11:51:08;;;;;;;9.77;6.80;;;;;;;;;;6157899;23;20179;-83
2022/01/11 11:53:36;;;;;;;9.63;6.40;;;;;;;;;;6157827;23;20213;-83
2022/01/11 11:56:18;;;;;;;7.23;5.60;;;;;;;;;;6159275;23;20174;-83
2022/01/11 11:58:48;;;;;;;10.30;7.23;;;;;;;;;;6154061;23;20178;-81
2022/01/11 12:01:34;;;;;;;7.63;6.60;;;;;;;;;;6158991;23;20204;-80
2022/01/11 12:04:03;;;;;;;10.57;4.60;;;;;;;;;;6163237;23;20186;-83
2022/01/11 12:06:31;;;;;;;7.53;4.90;;;;;;;;;;6162602;23;20174;-80
2022/01/11 12:09:04;;;;;;;7.90;4.53;;;;;;;;;;6163521;23;20222;-85
2022/01/11 12:11:38;;;;;;;7.43;3.90;;;;;;;;;;6163056;23;20208;-83
2022/01/11 12:14:06;;;;;;;5.43;3.90;;;;;;;;;;6162151;23;20229;-84
2022/01/11 12:16:51;;;;;;;5.20;4.10;;;;;;;;;;6160688;23;20171;-87
2022/01/11 12:19:48;;;;;;;6.30;4.23;;;;;;;;;;6165898;23;20167;-84
2022/01/11 12:22:19;;;;;;;8.30;6.03;;;;;;;;;;6135354;23;20194;-84
2022/01/11 12:24:47;;;;;;;8.03;5.77;;;;;;;;;;6166711;23;20175;-84
2022/01/11 12:27:18;;;;;;;6.23;5.00;;;;;;;;;;6167948;23;20179;-80
2022/01/11 12:29:57;;;;;;;5.73;4.23;;;;;;;;;;6167380;23;20189;-84
2022/01/11 12:32:28;;;;;;;7.80;4.40;;;;;;;;;;6168300;23;20327;-81
2022/01/11 12:34:57;;;;;;;8.17;5.30;;;;;;;;;;6168080;23;20253;-82
2022/01/11 12:37:30;;;;;;;7.53;4.93;;;;;;;;;;6167581;23;20178;-83
2022/01/11 12:40:04;;;;;;;6.70;4.47;;;;;;;;;;6166412;23;20255;-84
2022/01/11 12:42:32;;;;;;;5.40;4.90;;;;;;;;;;6167575;23;20278;-81
2022/01/11 12:47:45;;;;;;;7.70;4.70;;;;;;;;;;6168186;23;20162;-83
2022/01/11 12:50:13;;;;;;;6.43;4.87;;;;;;;;;;6168405;23;20178;-83
2022/01/11 12:52:42;;;;;;;8.97;4.70;;;;;;;;;;6167698;23;20195;-84
2022/01/11 12:55:10;;;;;;;7.23;5.03;;;;;;;;;;6167118;23;20180;-83
2022/01/11 12:57:37;;;;;;;5.37;4.87;;;;;;;;;;6166717;23;20190;-84
2022/01/11 13:00:06;;;;;;;5.37;4.87;;;;;;;;;;6165827;23;20179;-84
2022/01/11 13:02:42;;;;;;;4.87;4.27;;;;;;;;;;6164623;23;20241;-83
2022/01/11 13:05:12;;;;;;;5.20;4.30;;;;;;;;;;6162382;23;20170;-84
2022/01/11 13:07:40;;;;;;;6.63;4.27;;;;;;;;;;6167564;23;20174;-84
2022/01/11 13:10:14;;;;;;;4.70;4.20;;;;;;;;;;6166631;23;20194;-84
2022/01/11 13:12:42;;;;;;;5.00;4.10;;;;;;;;;;6165683;23;20190;-83
2022/01/11 13:15:13;;;;;;;4.37;3.80;;;;;;;;;;6166851;23;20181;-84
2022/01/11 13:17:56;;;;;;;4.43;3.33;;;;;;;;;;6159985;23;20171;-79
2022/01/11 13:20:25;;;;;;;4.20;3.33;;;;;;;;;;6159309;23;20178;-83
2022/01/11 13:23:07;;;;;;;11.33;4.33;;;;;;;;;;6159746;23;20201;-83
2022/01/11 13:25:37;;;;;;;5.60;4.20;;;;;;;;;;6159324;23;20185;-83
2022/01/11 13:28:05;;;;;;;5.73;3.80;;;;;;;;;;6158591;23;20274;-84
2022/01/11 13:30:36;;;;;;;4.03;3.60;;;;;;;;;;6161968;23;20175;-84
2022/01/11 13:33:04;;;;;;;3.67;3.37;;;;;;;;;;6160306;23;20198;-81
2022/01/11 13:35:31;;;;;;;3.47;3.17;;;;;;;;;;6162489;23;20221;-84
2022/01/11 13:38:08;;;;;;;4.00;3.40;;;;;;;;;;6159061;23;20175;-82
2022/01/11 13:40:50;;;;;;;3.50;3.20;;;;;;;;;;6159915;23;20720;-85
2022/01/11 13:43:19;;;;;;;4.40;2.80;;;;;;;;;;6158138;23;20201;-82
2022/01/11 13:45:47;;;;;;;3.40;3.10;;;;;;;;;;6159566;23;20174;-82
2022/01/11 13:48:29;;;;;;;;;;;;;;;;;;;;;
2022/01/11 13:50:57;;;;;;;4.70;3.07;;;;;;;;;;6161619;23;20177;-83
2022/01/11 13:53:44;;;;;;;5.83;3.17;;;;;;;;;;6158838;23;20190;-82
2022/01/11 13:56:16;;;;;;;6.10;3.40;;;;;;;;;;6163134;23;20155;-80
2022/01/11 13:58:51;;;;;;;6.33;3.70;;;;;;;;;;6160655;23;20186;-82
2022/01/11 14:01:43;;;;;;;5.47;3.13;;;;;;;;;;6161591;23;20169;-83
2022/01/11 14:04:17;;;;;;;3.83;3.20;;;;;;;;;;6109459;23;20209;-82
2022/01/11 14:06:47;;;;;;;3.30;3.00;;;;;;;;;;6160331;23;20174;-80
2022/01/11 14:09:23;;;;;;;3.10;2.80;;;;;;;;;;6165091;23;20199;-82
2022/01/11 14:12:07;;;;;;;5.17;3.57;;;;;;;;;;6163776;23;20194;-86
2022/01/11 14:14:39;;;;;;;3.50;3.20;;;;;;;;;;6164376;23;20217;-80
2022/01/11 14:17:13;;;;;;;3.60;3.27;;;;;;;;;;6163061;23;20171;-84
2022/01/11 14:19:48;;;;;;;3.63;3.03;;;;;;;;;;6164530;23;20296;-83
2022/01/11 14:22:18;;;;;;;3.97;3.30;;;;;;;;;;6164318;23;20218;-83
2022/01/11 14:24:55;;;;;;;3.63;3.20;;;;;;;;;;6165343;23;20187;-83
2022/01/11 14:27:26;;;;;;;3.50;3.20;;;;;;;;;;6166314;23;20175;-83
2022/01/11 14:29:58;;;;;;;3.87;3.40;;;;;;;;;;6165270;23;20196;-84
2022/01/11 14:32:25;;;;;;;6.03;3.67;;;;;;;;;;6165455;23;20249;-81
2022/01/11 14:35:00;;;;;;;4.40;3.97;;;;;;;;;;6165323;23;20230;-84
2022/01/11 14:37:30;;;;;;;6.27;4.07;;;;;;;;;;6166479;23;20174;-84
2022/01/11 14:40:03;;;;;;;4.17;3.77;;;;;;;;;;6167705;23;20170;-85
2022/01/11 14:42:35;;;;;;;4.20;3.80;;;;;;;;;;6169467;23;20195;-84
2022/01/11 14:45:09;;;;;;;4.67;4.13;;;;;;;;;;6169483;23;20175;-85
2022/01/11 14:47:46;;;;;;;4.10;3.70;;;;;;;;;;6167454;23;20285;-84
2022/01/11 14:50:15;;;;;;;4.93;4.43;;;;;;;;;;6168229;23;20182;-85
2022/01/11 14:52:54;;;;;;;5.57;3.90;;;;;;;;;;6163034;23;20197;-84
2022/01/11 14:55:24;;;;;;;5.37;3.77;;;;;;;;;;6164203;23;20177;-84
2022/01/11 14:58:13;;;;;;;4.20;3.80;;;;;;;;;;6162611;23;20190;-84
2022/01/11 15:00:42;;;;;;;3.87;3.57;;;;;;;;;;6166463;23;20178;-85
2022/01/11 15:03:15;;;;;;;4.10;3.67;;;;;;;;;;6167123;23;20206;-83
2022/01/11 15:05:42;;;;;;;4.30;3.90;;;;;;;;;;6169068;23;20246;-85
2022/01/11 15:08:13;;;;;;;6.77;4.40;;;;;;;;;;6164413;23;20171;-84
2022/01/11 15:10:41;;;;;;;6.50;4.37;;;;;;;;;;6165628;23;20202;-83
2022/01/11 15:13:20;;;;;;;4.20;3.80;;;;;;;;;;6165069;23;20266;-85
2022/01/11 15:15:51;;;;;;;4.33;3.80;;;;;;;;;;6164025;23;20166;-82